Latest Weather Observations for Melbourne (Olympic Park)

IDV60801

Issued at 3:32 pm EST Sunday 20 August 2017 (issued every 30 minutes, with the page automatically refreshed every 10 minutes)

About weather observations | Map of weather stations | Latest weather observations for VIC | Other Formats
Station Details ID: 086338 Name: MELBOURNE (OLYMPIC PARK) Lat: -37.83 Lon: 144.98 Height: 7.53 m
Data from the previous 72 hours. | See also: Recent months at Melbourne (Olympic Park)
Date/Time
EST
Temp
°C
App
Temp
°C
Dew
Point
°C
Rel
Hum
%
Delta-T
°C
Wind Press
QNH
hPa
Press
MSL
hPa
Rain since
9am
mm
Dir  Spd
km/h
Gust
km/h
Spd
kts
Gust
kts
20/03:30pm 12.4 9.0 1.7 48 4.6 NW 9 13 5 7 1020.6 1020.6 0.0
20/03:00pm 12.9 10.2 2.5 49 4.5 SW 6 11 3 6 1020.9 1020.9 0.0
20/02:30pm 12.2 8.7 1.2 47 4.6 SW 9 11 5 6 1021.7 1021.7 0.0
20/02:00pm 11.7 8.2 1.4 49 4.3 S 9 17 5 9 1022.3 1022.3 0.0
20/01:30pm 12.5 9.5 0.9 45 4.9 SW 6 11 3 6 1023.0 1023.0 0.0
20/01:00pm 12.3 8.9 1.6 48 4.5 NE 9 15 5 8 1023.6 1023.6 0.0
20/12:30pm 12.1 9.5 0.8 46 4.7 ENE 4 9 2 5 1024.1 1024.1 0.0
20/12:00pm 11.1 8.0 1.4 51 4.0 NW 7 11 4 6 1024.8 1024.8 0.0
20/11:30am 10.9 8.5 2.0 54 3.8 W 4 9 2 5 1025.5 1025.5 0.0
20/11:00am 11.0 8.8 3.1 58 3.4 ESE 4 9 2 5 1026.0 1026.0 0.0
20/10:30am 9.8 7.4 2.2 59 3.2 E 4 7 2 4 1026.4 1026.4 0.0
20/10:00am 10.1 8.7 3.8 65 2.7 CALM 0 0 0 0 1027.0 1027.0 0.0
20/09:30am 8.4 5.7 3.7 72 2.0 NNE 7 9 4 5 1027.3 1027.3 0.0
20/09:00am 7.1 4.4 3.7 79 1.4 NE 7 9 4 5 1027.6 1027.6 2.0
20/08:30am 6.0 3.3 3.7 85 1.0 NNE 7 11 4 6 1027.5 1027.5 2.0
20/08:00am 5.5 2.8 3.5 87 0.8 ENE 7 9 4 5 1027.5 1027.5 2.0
20/07:30am 5.2 2.4 3.4 88 0.7 NE 7 11 4 6 1027.3 1027.3 2.0
20/07:00am 5.6 3.4 3.6 87 0.8 NE 4 9 2 5 1027.1 1027.1 2.0
20/06:30am 5.8 3.2 4.0 88 0.8 ESE 7 9 4 5 1027.2 1027.2 2.0
20/06:00am 5.9 3.5 4.2 89 0.7 NNW 6 7 3 4 1027.0 1027.0 2.0
20/05:30am 5.6 4.3 4.1 90 0.6 CALM 0 6 0 3 1027.1 1027.1 2.0
20/05:00am 5.5 3.8 3.8 89 0.7 SE 2 7 1 4 1027.0 1027.0 2.0
20/04:30am 6.4 4.6 3.7 83 1.1 NNW 2 9 1 5 1026.6 1026.6 2.0
20/04:00am 6.5 4.1 4.3 86 0.9 W 6 9 3 5 1026.8 1026.8 2.0
20/03:30am 5.6 4.3 4.2 91 0.6 CALM 0 0 0 0 1026.9 1026.9 2.0
20/03:00am 5.7 4.0 4.0 89 0.7 NE 2 9 1 5 1026.8 1026.8 2.0
20/02:30am 6.3 5.0 4.3 87 0.9 CALM 0 0 0 0 1026.9 1026.9 2.0
20/02:00am 7.0 4.1 4.5 84 1.1 NE 9 13 5 7 1026.6 1026.6 2.0
20/01:30am 7.6 5.5 3.8 77 1.6 WSW 4 11 2 6 1026.8 1026.8 2.0
20/01:00am 7.8 5.2 4.2 78 1.6 SW 7 11 4 6 1027.2 1027.2 2.0
20/12:30am 7.8 5.5 4.7 81 1.4 WSW 6 11 3 6 1027.4 1027.4 2.0
20/12:00am 7.4 5.5 6.5 94 0.4 WNW 6 9 3 5 1027.6 1027.6 1.8
 
Date/Time
EST
Temp
°C
App
Temp
°C
Dew
Point
°C
Rel
Hum
%
Delta-T
°C
Wind Press
QNH
hPa
Press
MSL
hPa
Rain since
9am
mm
Dir  Spd
km/h
Gust
km/h
Spd
kts
Gust
kts
19/11:30pm 6.2 5.2 5.5 95 0.3 CALM 0 0 0 0 1027.5 1027.5 1.8
19/11:00pm 6.9 5.9 5.8 93 0.5 CALM 0 0 0 0 1027.6 1027.6 1.8
19/10:30pm 6.7 5.3 5.7 93 0.4 W 2 6 1 3 1027.8 1027.8 1.8
19/10:00pm 7.1 6.1 5.6 90 0.7 CALM 0 0 0 0 1027.7 1027.7 1.8
19/09:30pm 7.6 6.5 5.2 85 1.1 CALM 0 0 0 0 1027.6 1027.6 1.8
19/09:00pm 8.2 7.2 5.5 83 1.2 CALM 0 6 0 3 1027.5 1027.5 1.6
19/08:30pm 7.8 6.6 4.7 81 1.4 CALM 0 2 0 1 1027.3 1027.3 1.4
19/08:00pm 7.4 6.2 4.5 82 1.3 CALM 0 0 0 0 1027.3 1027.3 1.4
19/07:30pm 8.4 7.0 3.3 70 2.2 CALM 0 0 0 0 1027.3 1027.3 1.4
19/07:00pm 9.3 6.9 2.4 62 2.9 S 4 7 2 4 1027.4 1027.4 1.4
19/06:30pm 9.8 6.5 2.2 59 3.2 S 9 15 5 8 1027.4 1027.4 1.4
19/06:00pm 10.0 6.2 1.6 56 3.5 SSW 11 17 6 9 1027.2 1027.2 1.4
19/05:30pm 9.9 7.4 3.9 66 2.6 SSW 6 11 3 6 1027.0 1027.0 1.4
19/05:00pm 10.8 8.1 3.8 62 3.1 SSW 7 13 4 7 1026.8 1026.8 1.4
19/04:30pm 11.3 8.8 4.5 63 3.1 SSW 7 15 4 8 1026.7 1026.7 1.4
19/04:00pm 11.1 7.7 4.1 62 3.1 SSW 11 20 6 11 1026.5 1026.5 1.4
19/03:30pm 11.3 8.2 3.8 60 3.3 SSW 9 15 5 8 1026.5 1026.5 1.4
19/03:00pm 10.9 7.6 4.4 64 2.9 SW 11 15 6 8 1026.5 1026.5 1.4
19/02:30pm 10.8 7.8 4.0 63 3.0 SSW 9 13 5 7 1026.6 1026.6 1.4
19/02:00pm 11.0 8.2 5.3 68 2.6 SW 9 17 5 9 1026.6 1026.6 1.4
19/01:30pm 10.7 7.5 5.3 69 2.5 S 11 20 6 11 1026.6 1026.6 1.4
19/01:00pm 10.4 7.0 4.1 65 2.8 S 11 17 6 9 1026.7 1026.7 1.4
19/12:30pm 10.3 7.2 5.7 73 2.1 SW 11 17 6 9 1026.7 1026.7 1.4
19/12:00pm 9.1 6.3 5.3 77 1.7 S 9 19 5 10 1026.8 1026.8 1.4
19/11:30am 9.4 7.1 5.9 79 1.6 S 7 15 4 8 1026.8 1026.8 1.4
19/11:05am 8.0 6.0 6.1 88 0.9 SW 6 9 3 5 1026.9 1026.9 1.4
19/11:00am 7.5 5.2 5.6 88 0.8 SW 7 15 4 8 1026.9 1026.9 1.4
19/10:44am 7.5 3.4 4.6 82 1.3 SSW 15 30 8 16 1027.2 1027.2 1.0
19/10:30am 9.5 6.7 5.3 75 1.9 SW 9 13 5 7 1026.7 1026.7 0.0
19/10:00am 9.0 6.3 5.6 79 1.5 W 9 19 5 10 1026.5 1026.5 0.0
19/09:30am 8.2 6.1 6.0 86 1.0 W 6 9 3 5 1026.4 1026.4 0.0
19/09:00am 7.2 4.9 5.5 89 0.8 W 7 13 4 7 1026.2 1026.2 7.2
19/08:30am 6.5 3.2 4.7 88 0.8 W 11 17 6 9 1025.7 1025.7 7.2
19/08:00am 6.6 4.2 5.2 91 0.6 W 7 13 4 7 1025.2 1025.2 7.2
19/07:30am 6.3 4.8 4.9 91 0.6 E 2 11 1 6 1024.8 1024.8 7.2
19/07:00am 6.4 4.2 5.2 92 0.5 WSW 6 11 3 6 1024.4 1024.4 7.2
19/06:49am 6.4 4.2 5.2 92 0.5 WNW 6 9 3 5 1024.1 1024.1 7.2
19/06:45am 6.3 4.0 4.9 91 0.6 WNW 6 9 3 5 1024.0 1024.0 7.2
19/06:34am 6.4 3.9 4.9 90 0.7 WNW 7 13 4 7 1023.9 1023.9 7.2
19/06:30am 6.3 3.4 4.6 89 0.7 WSW 9 17 5 9 1023.8 1023.8 7.0
19/06:24am 6.2 3.3 4.4 88 0.8 SSW 9 17 5 9 1024.0 1024.0 6.6
19/06:00am 6.2 3.1 3.7 84 1.0 WSW 9 17 5 9 1023.0 1023.0 6.0
19/05:30am 6.0 3.4 4.0 87 0.8 WSW 7 17 4 9 1022.7 1022.7 6.0
19/05:00am 6.2 2.8 4.2 87 0.9 W 11 15 6 8 1022.4 1022.4 6.0
19/04:30am 6.3 3.0 4.3 87 0.9 W 11 20 6 11 1022.2 1022.2 5.8
19/04:00am 6.4 3.8 4.1 85 1.0 WSW 7 11 4 6 1021.8 1021.8 5.8
19/03:30am 6.5 3.5 4.0 84 1.1 WSW 9 15 5 8 1021.6 1021.6 5.8
19/03:00am 6.4 3.8 4.2 86 0.9 W 7 15 4 8 1021.4 1021.4 5.8
19/02:30am 6.7 3.8 4.5 86 1.0 WSW 9 19 5 10 1021.3 1021.3 5.8
19/02:00am 6.8 3.9 4.8 87 0.9 W 9 19 5 10 1021.2 1021.2 5.8
19/01:30am 6.8 3.9 4.6 86 1.0 W 9 17 5 9 1021.1 1021.1 5.8
19/01:00am 6.7 3.8 4.9 88 0.8 W 9 13 5 7 1020.8 1020.8 5.8
19/12:30am 7.1 4.4 5.4 89 0.8 W 9 17 5 9 1020.8 1020.8 5.8
19/12:00am 7.2 3.3 5.3 88 0.8 W 15 30 8 16 1020.7 1020.7 5.6
 
Date/Time
EST
Temp
°C
App
Temp
°C
Dew
Point
°C
Rel
Hum
%
Delta-T
°C
Wind Press
QNH
hPa
Press
MSL
hPa
Rain since
9am
mm
Dir  Spd
km/h
Gust
km/h
Spd
kts
Gust
kts
18/11:30pm 7.3 4.5 5.3 87 0.9 W 9 17 5 9 1020.6 1020.6 5.2
18/11:02pm 7.3 4.2 5.4 88 0.8 W 11 19 6 10 1020.1 1020.1 5.0
18/11:00pm 7.3 4.6 5.4 88 0.8 W 9 17 5 9 1020.1 1020.1 5.0
18/10:46pm 7.4 3.9 5.4 87 0.9 W 13 28 7 15 1020.1 1020.1 4.8
18/10:30pm 7.7 5.4 5.7 87 0.9 WSW 7 19 4 10 1020.0 1020.0 4.2
18/10:00pm 7.8 5.0 5.1 83 1.2 WSW 9 15 5 8 1019.7 1019.7 3.4
18/09:30pm 8.0 5.1 4.9 81 1.4 WSW 9 24 5 13 1019.4 1019.4 3.0
18/09:00pm 8.3 5.0 4.5 77 1.7 WNW 11 17 6 9 1018.9 1018.9 3.0
18/08:30pm 8.3 5.1 5.2 81 1.4 WSW 11 17 6 9 1018.7 1018.7 3.0
18/08:00pm 8.4 5.3 5.5 82 1.3 WSW 11 20 6 11 1018.1 1018.1 2.8
18/07:30pm 8.3 5.2 5.6 83 1.2 W 11 20 6 11 1017.6 1017.6 2.8
18/07:00pm 8.5 5.5 5.8 83 1.2 W 11 19 6 10 1017.2 1017.2 2.6
18/06:32pm 8.1 5.4 5.6 84 1.1 W 9 19 5 10 1016.7 1016.7 2.6
18/06:30pm 8.1 5.4 5.6 84 1.1 W 9 19 5 10 1016.6 1016.6 2.6
18/06:15pm 8.3 4.8 5.6 83 1.2 W 13 28 7 15 1016.6 1016.6 2.4
18/06:00pm 8.7 6.0 5.6 81 1.4 W 9 24 5 13 1016.2 1016.2 1.6
18/05:30pm 9.2 5.7 5.4 77 1.7 W 13 22 7 12 1015.6 1015.6 1.4
18/05:00pm 9.4 5.7 4.6 72 2.1 WSW 13 24 7 13 1015.2 1015.2 1.2
18/04:30pm 10.4 5.7 3.4 62 3.1 W 17 32 9 17 1014.4 1014.4 1.0
18/04:00pm 11.1 6.9 3.9 61 3.2 W 15 30 8 16 1013.7 1013.7 1.0
18/03:30pm 10.7 6.7 5.0 68 2.6 WSW 15 28 8 15 1013.4 1013.4 1.0
18/03:00pm 9.6 6.5 5.4 75 1.9 WSW 11 20 6 11 1013.1 1013.1 1.0
18/02:30pm 10.8 7.3 5.6 70 2.4 WSW 13 24 7 13 1012.6 1012.6 0.6
18/02:00pm 11.0 7.6 5.7 70 2.4 W 13 20 7 11 1011.8 1011.8 0.4
18/01:30pm 9.9 6.9 5.9 76 1.8 W 11 19 6 10 1011.7 1011.7 0.4
18/01:00pm 8.0 4.7 4.6 79 1.5 W 11 22 6 12 1011.7 1011.7 0.4
18/12:30pm 9.6 5.2 5.0 73 2.1 SW 17 37 9 20 1011.3 1011.3 0.4
18/12:00pm 11.5 6.7 2.8 55 3.8 W 17 30 9 16 1010.9 1010.9 0.0
18/11:30am 11.2 6.2 3.5 59 3.4 WNW 19 35 10 19 1010.9 1010.9 0.0
18/11:00am 11.2 6.9 3.5 59 3.4 WNW 15 37 8 20 1010.4 1010.4 0.0
18/10:30am 10.8 6.2 3.8 62 3.1 W 17 30 9 16 1010.3 1010.3 0.0
18/10:00am 10.6 6.8 4.1 64 2.9 W 13 22 7 12 1009.9 1009.9 0.0
18/09:30am 9.2 4.9 3.0 65 2.6 WNW 15 30 8 16 1009.8 1009.8 0.0
18/09:00am 9.6 4.5 3.1 64 2.8 NW 19 33 10 18 1009.2 1009.2 2.8
18/08:30am 9.6 5.7 3.6 66 2.6 WNW 13 22 7 12 1008.8 1008.8 2.8
18/08:00am 8.9 5.0 3.5 69 2.3 NW 13 24 7 13 1008.3 1008.3 2.8
18/07:30am 8.8 4.9 3.4 69 2.3 WNW 13 20 7 11 1007.9 1007.9 2.8
18/07:00am 8.7 5.1 3.1 68 2.4 WNW 11 17 6 9 1007.4 1007.4 2.8
18/06:30am 8.7 4.3 2.9 67 2.5 WNW 15 30 8 16 1006.7 1006.7 2.8
18/06:00am 8.9 5.3 2.9 66 2.6 W 11 22 6 12 1006.4 1006.4 2.8
18/05:30am 8.9 4.5 2.7 65 2.6 NW 15 26 8 14 1005.9 1005.9 2.8
18/05:00am 9.0 5.4 2.8 65 2.6 WNW 11 22 6 12 1005.8 1005.8 2.8
18/04:30am 9.2 5.2 2.8 64 2.7 NW 13 22 7 12 1005.2 1005.2 2.8
18/04:00am 9.3 5.3 2.6 63 2.9 NW 13 20 7 11 1005.1 1005.1 2.8
18/03:30am 9.3 5.6 2.6 63 2.8 NW 11 19 6 10 1005.0 1005.0 2.8
18/03:00am 8.8 5.9 2.8 66 2.6 NNW 7 11 4 6 1004.5 1004.5 2.8
18/02:30am 8.8 4.8 2.6 65 2.6 N 13 22 7 12 1004.7 1004.7 2.8
18/02:00am 9.1 5.5 2.9 65 2.7 NNW 11 20 6 11 1004.8 1004.8 2.8
18/01:30am 9.0 5.8 3.0 66 2.6 NNW 9 13 5 7 1004.8 1004.8 2.8
18/01:00am 9.2 6.0 3.2 66 2.6 NNW 9 17 5 9 1004.6 1004.6 2.8
18/12:30am 8.7 5.7 3.9 72 2.1 NNE 9 17 5 9 1004.7 1004.7 2.8
18/12:00am 8.3 4.9 4.1 75 1.8 NNE 11 17 6 9 1004.7 1004.7 2.8
 
Date/Time
EST
Temp
°C
App
Temp
°C
Dew
Point
°C
Rel
Hum
%
Delta-T
°C
Wind Press
QNH
hPa
Press
MSL
hPa
Rain since
9am
mm
Dir  Spd
km/h
Gust
km/h
Spd
kts
Gust
kts
17/11:30pm 9.2 5.4 3.8 69 2.4 NNE 13 19 7 10 1004.5 1004.5 2.8
17/11:00pm 9.5 6.4 3.5 66 2.6 NNW 9 22 5 12 1004.4 1004.4 2.8
17/10:30pm 9.7 6.5 3.0 63 2.9 NNW 9 24 5 13 1004.0 1004.0 2.8
17/10:00pm 9.4 5.9 3.4 66 2.6 NNW 11 19 6 10 1004.2 1004.2 2.8
17/09:30pm 9.5 5.6 3.5 66 2.6 NW 13 22 7 12 1004.1 1004.1 2.8
17/09:00pm 9.5 6.0 3.7 67 2.5 NW 11 22 6 12 1004.1 1004.1 2.8
17/08:30pm 9.2 6.0 5.0 75 1.9 N 11 15 6 8 1003.9 1003.9 2.8
17/08:00pm 9.1 5.4 4.5 73 2.0 NNW 13 20 7 11 1004.0 1004.0 2.8
17/07:30pm 9.0 4.9 4.2 72 2.1 NW 15 22 8 12 1004.0 1004.0 2.8
17/07:00pm 11.1 8.3 5.0 66 2.8 N 9 19 5 10 1003.4 1003.4 2.4
17/06:30pm 11.3 7.4 5.4 67 2.7 NW 15 22 8 12 1003.1 1003.1 2.4
17/06:00pm 11.2 7.8 5.7 69 2.6 NW 13 20 7 11 1002.3 1002.3 2.4
17/05:30pm 10.5 8.1 6.8 78 1.7 WNW 9 17 5 9 1002.2 1002.2 2.4
17/05:00pm 9.7 7.3 7.1 84 1.2 WNW 9 15 5 8 1002.1 1002.1 2.4
17/04:58pm 9.6 7.2 7.2 85 1.1 WNW 9 19 5 10 1002.1 1002.1 2.4
17/04:31pm 9.6 4.0 5.6 76 1.8 W 24 52 13 28 1002.7 1002.7 1.2
17/04:30pm 10.0 4.7 5.2 72 2.2 W 22 52 12 28 1002.7 1002.7 1.0
17/04:26pm 12.7 8.4 5.4 61 3.4 W 17 52 9 28 1001.9 1001.9 0.4
17/04:00pm 14.7 9.9 2.6 44 5.4 WNW 17 30 9 16 1000.7 1000.7 0.2

Other Formats:

Comma delimited format used in spreadsheet applications
http://www.bom.gov.au/fwo/IDV60801/IDV60801.95936.axf

JavaScript Object Notation format (JSON) in row-major order
http://www.bom.gov.au/fwo/IDV60801/IDV60801.95936.json